sensor_id;sensor_type;location;lat;lon;timestamp;P1;durP1;ratioP1;P2;durP2;ratioP2
85223;SDS011;75619;51.316;4.824;2024-01-15T00:01:14;15.23;;;3.72;;
85223;SDS011;75619;51.316;4.824;2024-01-15T00:03:39;5.47;;;2.92;;
85223;SDS011;75619;51.316;4.824;2024-01-15T00:06:05;7.57;;;2.67;;
85223;SDS011;75619;51.316;4.824;2024-01-15T00:08:30;6.00;;;2.33;;
85223;SDS011;75619;51.316;4.824;2024-01-15T00:10:56;10.88;;;2.63;;
85223;SDS011;75619;51.316;4.824;2024-01-15T00:13:21;12.88;;;3.00;;
85223;SDS011;75619;51.316;4.824;2024-01-15T00:15:47;7.82;;;2.50;;
85223;SDS011;75619;51.316;4.824;2024-01-15T00:18:12;6.47;;;2.80;;
85223;SDS011;75619;51.316;4.824;2024-01-15T00:20:37;4.88;;;1.67;;
85223;SDS011;75619;51.316;4.824;2024-01-15T00:23:03;3.47;;;1.77;;
85223;SDS011;75619;51.316;4.824;2024-01-15T00:25:29;8.68;;;1.52;;
85223;SDS011;75619;51.316;4.824;2024-01-15T00:27:54;3.35;;;1.00;;
85223;SDS011;75619;51.316;4.824;2024-01-15T00:30:20;2.42;;;1.10;;
85223;SDS011;75619;51.316;4.824;2024-01-15T00:32:45;8.45;;;1.23;;
85223;SDS011;75619;51.316;4.824;2024-01-15T00:35:10;1.88;;;1.00;;
85223;SDS011;75619;51.316;4.824;2024-01-15T00:37:36;2.90;;;1.48;;
85223;SDS011;75619;51.316;4.824;2024-01-15T00:40:02;3.78;;;0.90;;
85223;SDS011;75619;51.316;4.824;2024-01-15T00:42:28;1.60;;;0.90;;
85223;SDS011;75619;51.316;4.824;2024-01-15T00:44:53;4.00;;;0.70;;
85223;SDS011;75619;51.316;4.824;2024-01-15T00:47:19;1.52;;;0.80;;
85223;SDS011;75619;51.316;4.824;2024-01-15T00:49:44;3.35;;;1.17;;
85223;SDS011;75619;51.316;4.824;2024-01-15T00:52:10;2.17;;;1.00;;
85223;SDS011;75619;51.316;4.824;2024-01-15T00:54:35;2.53;;;1.10;;
85223;SDS011;75619;51.316;4.824;2024-01-15T00:57:01;9.02;;;1.10;;
85223;SDS011;75619;51.316;4.824;2024-01-15T00:59:26;2.65;;;1.00;;
85223;SDS011;75619;51.316;4.824;2024-01-15T01:01:52;3.75;;;0.80;;
85223;SDS011;75619;51.316;4.824;2024-01-15T01:04:17;1.90;;;0.95;;
85223;SDS011;75619;51.316;4.824;2024-01-15T01:06:43;3.58;;;1.20;;
85223;SDS011;75619;51.316;4.824;2024-01-15T01:09:08;3.00;;;1.00;;
85223;SDS011;75619;51.316;4.824;2024-01-15T01:11:34;2.75;;;0.82;;
85223;SDS011;75619;51.316;4.824;2024-01-15T01:13:59;1.98;;;0.70;;
85223;SDS011;75619;51.316;4.824;2024-01-15T01:16:26;6.10;;;1.23;;
85223;SDS011;75619;51.316;4.824;2024-01-15T01:18:51;3.47;;;0.80;;
85223;SDS011;75619;51.316;4.824;2024-01-15T01:21:17;1.38;;;0.63;;
85223;SDS011;75619;51.316;4.824;2024-01-15T01:23:42;4.57;;;0.60;;
85223;SDS011;75619;51.316;4.824;2024-01-15T01:26:08;1.30;;;0.70;;
85223;SDS011;75619;51.316;4.824;2024-01-15T01:28:33;4.43;;;1.10;;
85223;SDS011;75619;51.316;4.824;2024-01-15T01:30:59;4.20;;;0.60;;
85223;SDS011;75619;51.316;4.824;2024-01-15T01:33:24;1.00;;;0.63;;
85223;SDS011;75619;51.316;4.824;2024-01-15T01:35:50;1.42;;;0.75;;
85223;SDS011;75619;51.316;4.824;2024-01-15T01:38:15;4.63;;;0.82;;
85223;SDS011;75619;51.316;4.824;2024-01-15T01:40:41;2.70;;;0.85;;
85223;SDS011;75619;51.316;4.824;2024-01-15T01:43:06;2.10;;;0.95;;
85223;SDS011;75619;51.316;4.824;2024-01-15T01:45:34;1.60;;;0.82;;
85223;SDS011;75619;51.316;4.824;2024-01-15T01:48:00;3.55;;;0.70;;
85223;SDS011;75619;51.316;4.824;2024-01-15T01:50:27;6.70;;;1.08;;
85223;SDS011;75619;51.316;4.824;2024-01-15T01:52:54;2.83;;;1.02;;
85223;SDS011;75619;51.316;4.824;2024-01-15T01:55:20;5.63;;;1.00;;
85223;SDS011;75619;51.316;4.824;2024-01-15T01:57:49;1.35;;;0.85;;
85223;SDS011;75619;51.316;4.824;2024-01-15T02:00:15;3.97;;;0.90;;
85223;SDS011;75619;51.316;4.824;2024-01-15T02:02:41;1.48;;;0.80;;
85223;SDS011;75619;51.316;4.824;2024-01-15T02:05:07;2.38;;;0.73;;
85223;SDS011;75619;51.316;4.824;2024-01-15T02:07:34;3.72;;;0.77;;
85223;SDS011;75619;51.316;4.824;2024-01-15T02:10:00;2.72;;;0.80;;
85223;SDS011;75619;51.316;4.824;2024-01-15T02:12:25;4.40;;;0.85;;
85223;SDS011;75619;51.316;4.824;2024-01-15T02:14:51;5.10;;;0.70;;
85223;SDS011;75619;51.316;4.824;2024-01-15T02:17:16;5.57;;;1.40;;
85223;SDS011;75619;51.316;4.824;2024-01-15T02:19:42;7.68;;;1.08;;
85223;SDS011;75619;51.316;4.824;2024-01-15T02:22:07;1.80;;;0.70;;
85223;SDS011;75619;51.316;4.824;2024-01-15T02:24:33;3.35;;;0.70;;
85223;SDS011;75619;51.316;4.824;2024-01-15T02:26:58;2.00;;;0.70;;
85223;SDS011;75619;51.316;4.824;2024-01-15T02:29:23;4.93;;;0.70;;
85223;SDS011;75619;51.316;4.824;2024-01-15T02:31:49;2.33;;;0.85;;
85223;SDS011;75619;51.316;4.824;2024-01-15T02:34:14;3.30;;;0.90;;
85223;SDS011;75619;51.316;4.824;2024-01-15T02:36:40;5.53;;;0.50;;
85223;SDS011;75619;51.316;4.824;2024-01-15T02:39:05;1.83;;;0.88;;
85223;SDS011;75619;51.316;4.824;2024-01-15T02:41:30;1.10;;;0.55;;
85223;SDS011;75619;51.316;4.824;2024-01-15T02:43:56;2.33;;;0.73;;
85223;SDS011;75619;51.316;4.824;2024-01-15T02:46:21;5.75;;;0.80;;
85223;SDS011;75619;51.316;4.824;2024-01-15T02:48:47;3.10;;;1.00;;
85223;SDS011;75619;51.316;4.824;2024-01-15T02:51:12;2.63;;;0.65;;
85223;SDS011;75619;51.316;4.824;2024-01-15T02:53:38;5.82;;;1.40;;
85223;SDS011;75619;51.316;4.824;2024-01-15T02:56:04;5.50;;;0.93;;
85223;SDS011;75619;51.316;4.824;2024-01-15T02:58:29;2.75;;;1.08;;
85223;SDS011;75619;51.316;4.824;2024-01-15T03:00:55;1.85;;;0.82;;
85223;SDS011;75619;51.316;4.824;2024-01-15T03:03:21;2.63;;;1.08;;
85223;SDS011;75619;51.316;4.824;2024-01-15T03:05:46;2.25;;;0.85;;
85223;SDS011;75619;51.316;4.824;2024-01-15T03:08:12;4.15;;;1.10;;
85223;SDS011;75619;51.316;4.824;2024-01-15T03:10:37;5.47;;;1.33;;
85223;SDS011;75619;51.316;4.824;2024-01-15T03:13:03;8.15;;;1.05;;
85223;SDS011;75619;51.316;4.824;2024-01-15T03:15:28;3.88;;;1.00;;
85223;SDS011;75619;51.316;4.824;2024-01-15T03:17:54;1.50;;;0.93;;
85223;SDS011;75619;51.316;4.824;2024-01-15T03:20:19;3.80;;;1.00;;
85223;SDS011;75619;51.316;4.824;2024-01-15T03:22:45;3.67;;;1.13;;
85223;SDS011;75619;51.316;4.824;2024-01-15T03:25:10;5.47;;;1.20;;
85223;SDS011;75619;51.316;4.824;2024-01-15T03:27:35;3.17;;;1.23;;
85223;SDS011;75619;51.316;4.824;2024-01-15T03:30:01;6.40;;;1.48;;
85223;SDS011;75619;51.316;4.824;2024-01-15T03:32:27;6.60;;;1.40;;
85223;SDS011;75619;51.316;4.824;2024-01-15T03:34:53;3.90;;;1.02;;
85223;SDS011;75619;51.316;4.824;2024-01-15T03:37:18;3.88;;;1.08;;
85223;SDS011;75619;51.316;4.824;2024-01-15T03:39:44;6.25;;;1.13;;
85223;SDS011;75619;51.316;4.824;2024-01-15T03:42:10;6.13;;;1.48;;
85223;SDS011;75619;51.316;4.824;2024-01-15T03:44:35;4.93;;;1.85;;
85223;SDS011;75619;51.316;4.824;2024-01-15T03:47:01;2.65;;;1.25;;
85223;SDS011;75619;51.316;4.824;2024-01-15T03:49:26;9.07;;;1.55;;
85223;SDS011;75619;51.316;4.824;2024-01-15T03:51:52;8.57;;;1.42;;
85223;SDS011;75619;51.316;4.824;2024-01-15T03:54:17;11.77;;;2.60;;
85223;SDS011;75619;51.316;4.824;2024-01-15T03:56:42;7.22;;;1.77;;
85223;SDS011;75619;51.316;4.824;2024-01-15T03:59:08;8.82;;;2.00;;
85223;SDS011;75619;51.316;4.824;2024-01-15T04:01:33;7.40;;;1.42;;
85223;SDS011;75619;51.316;4.824;2024-01-15T04:03:59;4.68;;;1.20;;
85223;SDS011;75619;51.316;4.824;2024-01-15T04:06:24;5.53;;;1.60;;
85223;SDS011;75619;51.316;4.824;2024-01-15T04:08:50;6.38;;;1.33;;
85223;SDS011;75619;51.316;4.824;2024-01-15T04:11:15;3.80;;;1.38;;
85223;SDS011;75619;51.316;4.824;2024-01-15T04:13:41;6.68;;;1.38;;
85223;SDS011;75619;51.316;4.824;2024-01-15T04:16:06;15.63;;;1.27;;
85223;SDS011;75619;51.316;4.824;2024-01-15T04:18:32;9.73;;;1.45;;
85223;SDS011;75619;51.316;4.824;2024-01-15T04:20:57;6.50;;;1.67;;
85223;SDS011;75619;51.316;4.824;2024-01-15T04:23:23;13.25;;;2.10;;
85223;SDS011;75619;51.316;4.824;2024-01-15T04:25:48;4.00;;;1.33;;
85223;SDS011;75619;51.316;4.824;2024-01-15T04:28:14;17.08;;;1.23;;
85223;SDS011;75619;51.316;4.824;2024-01-15T04:30:40;3.50;;;1.13;;
85223;SDS011;75619;51.316;4.824;2024-01-15T04:33:05;6.72;;;1.48;;
85223;SDS011;75619;51.316;4.824;2024-01-15T04:35:31;8.32;;;1.30;;
85223;SDS011;75619;51.316;4.824;2024-01-15T04:37:56;6.78;;;1.80;;
85223;SDS011;75619;51.316;4.824;2024-01-15T04:40:22;6.82;;;2.20;;
85223;SDS011;75619;51.316;4.824;2024-01-15T04:42:48;7.97;;;1.92;;
85223;SDS011;75619;51.316;4.824;2024-01-15T04:45:14;4.28;;;1.58;;
85223;SDS011;75619;51.316;4.824;2024-01-15T04:47:39;8.82;;;2.25;;
85223;SDS011;75619;51.316;4.824;2024-01-15T04:50:05;7.32;;;2.03;;
85223;SDS011;75619;51.316;4.824;2024-01-15T04:52:31;8.80;;;2.60;;
85223;SDS011;75619;51.316;4.824;2024-01-15T04:54:56;5.93;;;2.30;;
85223;SDS011;75619;51.316;4.824;2024-01-15T04:57:22;7.63;;;2.40;;
85223;SDS011;75619;51.316;4.824;2024-01-15T04:59:48;6.28;;;2.00;;
85223;SDS011;75619;51.316;4.824;2024-01-15T05:02:13;11.45;;;1.92;;
85223;SDS011;75619;51.316;4.824;2024-01-15T05:04:39;6.55;;;3.22;;
85223;SDS011;75619;51.316;4.824;2024-01-15T05:07:04;8.55;;;2.22;;
85223;SDS011;75619;51.316;4.824;2024-01-15T05:09:30;11.23;;;2.63;;
85223;SDS011;75619;51.316;4.824;2024-01-15T05:11:56;9.35;;;2.53;;
85223;SDS011;75619;51.316;4.824;2024-01-15T05:14:21;6.80;;;2.45;;
85223;SDS011;75619;51.316;4.824;2024-01-15T05:16:47;7.65;;;2.05;;
85223;SDS011;75619;51.316;4.824;2024-01-15T05:19:13;12.57;;;2.50;;
85223;SDS011;75619;51.316;4.824;2024-01-15T05:21:39;8.50;;;2.65;;
85223;SDS011;75619;51.316;4.824;2024-01-15T05:24:05;7.25;;;2.45;;
85223;SDS011;75619;51.316;4.824;2024-01-15T05:26:30;11.30;;;1.95;;
85223;SDS011;75619;51.316;4.824;2024-01-15T05:28:56;4.82;;;1.85;;
85223;SDS011;75619;51.316;4.824;2024-01-15T05:31:22;2.97;;;1.17;;
85223;SDS011;75619;51.316;4.824;2024-01-15T05:33:48;1.90;;;0.88;;
85223;SDS011;75619;51.316;4.824;2024-01-15T05:36:13;5.82;;;1.42;;
85223;SDS011;75619;51.316;4.824;2024-01-15T05:38:39;8.00;;;1.33;;
85223;SDS011;75619;51.316;4.824;2024-01-15T05:41:05;5.53;;;1.65;;
85223;SDS011;75619;51.316;4.824;2024-01-15T05:43:31;3.45;;;0.90;;
85223;SDS011;75619;51.316;4.824;2024-01-15T05:45:56;6.25;;;1.20;;
85223;SDS011;75619;51.316;4.824;2024-01-15T05:48:22;2.60;;;0.98;;
85223;SDS011;75619;51.316;4.824;2024-01-15T05:50:48;3.80;;;0.93;;
85223;SDS011;75619;51.316;4.824;2024-01-15T05:53:13;4.40;;;1.10;;
85223;SDS011;75619;51.316;4.824;2024-01-15T05:55:39;1.80;;;0.77;;
85223;SDS011;75619;51.316;4.824;2024-01-15T05:58:05;4.13;;;1.15;;
85223;SDS011;75619;51.316;4.824;2024-01-15T06:00:31;4.18;;;1.70;;
85223;SDS011;75619;51.316;4.824;2024-01-15T06:02:58;26.38;;;11.45;;
85223;SDS011;75619;51.316;4.824;2024-01-15T06:05:24;7.03;;;2.58;;
85223;SDS011;75619;51.316;4.824;2024-01-15T06:07:50;5.63;;;1.98;;
85223;SDS011;75619;51.316;4.824;2024-01-15T06:10:15;6.93;;;2.28;;
85223;SDS011;75619;51.316;4.824;2024-01-15T06:12:42;3.17;;;1.48;;
85223;SDS011;75619;51.316;4.824;2024-01-15T06:15:08;3.33;;;1.60;;
85223;SDS011;75619;51.316;4.824;2024-01-15T06:17:34;4.07;;;2.30;;
85223;SDS011;75619;51.316;4.824;2024-01-15T06:19:59;2.80;;;1.42;;
85223;SDS011;75619;51.316;4.824;2024-01-15T06:22:25;7.10;;;2.17;;
85223;SDS011;75619;51.316;4.824;2024-01-15T06:24:51;15.50;;;2.72;;
85223;SDS011;75619;51.316;4.824;2024-01-15T06:27:16;6.32;;;2.80;;
85223;SDS011;75619;51.316;4.824;2024-01-15T06:29:44;3.85;;;2.10;;
85223;SDS011;75619;51.316;4.824;2024-01-15T06:32:12;6.80;;;2.35;;
85223;SDS011;75619;51.316;4.824;2024-01-15T06:34:38;8.77;;;3.03;;
85223;SDS011;75619;51.316;4.824;2024-01-15T06:37:04;3.40;;;2.00;;
85223;SDS011;75619;51.316;4.824;2024-01-15T06:39:30;6.40;;;2.15;;
85223;SDS011;75619;51.316;4.824;2024-01-15T06:41:55;8.73;;;2.53;;
85223;SDS011;75619;51.316;4.824;2024-01-15T06:44:21;8.35;;;3.78;;
85223;SDS011;75619;51.316;4.824;2024-01-15T06:46:46;13.10;;;4.60;;
85223;SDS011;75619;51.316;4.824;2024-01-15T06:49:12;9.98;;;4.30;;
85223;SDS011;75619;51.316;4.824;2024-01-15T06:51:38;10.52;;;3.53;;
85223;SDS011;75619;51.316;4.824;2024-01-15T06:54:04;9.90;;;1.92;;
85223;SDS011;75619;51.316;4.824;2024-01-15T06:56:31;4.38;;;1.50;;
85223;SDS011;75619;51.316;4.824;2024-01-15T06:58:57;2.25;;;1.20;;
85223;SDS011;75619;51.316;4.824;2024-01-15T07:01:22;5.88;;;1.70;;
85223;SDS011;75619;51.316;4.824;2024-01-15T07:03:48;5.85;;;1.98;;
85223;SDS011;75619;51.316;4.824;2024-01-15T07:06:14;4.40;;;1.65;;
85223;SDS011;75619;51.316;4.824;2024-01-15T07:08:40;2.03;;;0.95;;
85223;SDS011;75619;51.316;4.824;2024-01-15T07:11:06;3.17;;;1.63;;
85223;SDS011;75619;51.316;4.824;2024-01-15T07:13:32;5.90;;;1.83;;
85223;SDS011;75619;51.316;4.824;2024-01-15T07:15:58;2.35;;;1.15;;
85223;SDS011;75619;51.316;4.824;2024-01-15T07:18:24;7.07;;;2.47;;
85223;SDS011;75619;51.316;4.824;2024-01-15T07:20:50;10.30;;;3.97;;
85223;SDS011;75619;51.316;4.824;2024-01-15T07:23:15;5.82;;;3.22;;
85223;SDS011;75619;51.316;4.824;2024-01-15T07:25:42;8.80;;;5.10;;
85223;SDS011;75619;51.316;4.824;2024-01-15T07:28:08;17.25;;;7.20;;
85223;SDS011;75619;51.316;4.824;2024-01-15T07:30:34;9.77;;;5.38;;
85223;SDS011;75619;51.316;4.824;2024-01-15T07:33:00;11.63;;;6.07;;
85223;SDS011;75619;51.316;4.824;2024-01-15T07:35:26;8.43;;;3.60;;
85223;SDS011;75619;51.316;4.824;2024-01-15T07:37:51;3.95;;;2.25;;
85223;SDS011;75619;51.316;4.824;2024-01-15T07:40:17;4.90;;;2.97;;
85223;SDS011;75619;51.316;4.824;2024-01-15T07:42:43;19.08;;;7.55;;
85223;SDS011;75619;51.316;4.824;2024-01-15T07:45:11;9.93;;;4.72;;
85223;SDS011;75619;51.316;4.824;2024-01-15T07:47:37;7.03;;;3.63;;
85223;SDS011;75619;51.316;4.824;2024-01-15T07:50:03;11.93;;;3.45;;
85223;SDS011;75619;51.316;4.824;2024-01-15T07:52:29;4.18;;;1.95;;
85223;SDS011;75619;51.316;4.824;2024-01-15T07:54:56;13.20;;;6.38;;
85223;SDS011;75619;51.316;4.824;2024-01-15T07:57:21;11.38;;;5.72;;
85223;SDS011;75619;51.316;4.824;2024-01-15T07:59:48;13.32;;;7.88;;
85223;SDS011;75619;51.316;4.824;2024-01-15T08:02:14;9.50;;;5.78;;
85223;SDS011;75619;51.316;4.824;2024-01-15T08:04:39;8.00;;;2.85;;
85223;SDS011;75619;51.316;4.824;2024-01-15T08:07:05;4.10;;;2.55;;
85223;SDS011;75619;51.316;4.824;2024-01-15T08:09:32;7.13;;;3.63;;
85223;SDS011;75619;51.316;4.824;2024-01-15T08:11:58;5.65;;;2.00;;
85223;SDS011;75619;51.316;4.824;2024-01-15T08:14:23;5.93;;;1.80;;
85223;SDS011;75619;51.316;4.824;2024-01-15T08:16:49;7.57;;;2.40;;
85223;SDS011;75619;51.316;4.824;2024-01-15T08:19:14;5.63;;;3.25;;
85223;SDS011;75619;51.316;4.824;2024-01-15T08:21:40;10.18;;;4.85;;
85223;SDS011;75619;51.316;4.824;2024-01-15T08:24:06;8.55;;;5.18;;
85223;SDS011;75619;51.316;4.824;2024-01-15T08:26:32;6.43;;;2.40;;
85223;SDS011;75619;51.316;4.824;2024-01-15T08:28:58;14.23;;;4.75;;
85223;SDS011;75619;51.316;4.824;2024-01-15T08:31:24;12.68;;;7.38;;
85223;SDS011;75619;51.316;4.824;2024-01-15T08:33:50;12.75;;;7.93;;
85223;SDS011;75619;51.316;4.824;2024-01-15T08:36:15;12.52;;;7.68;;
85223;SDS011;75619;51.316;4.824;2024-01-15T08:38:41;14.88;;;7.45;;
85223;SDS011;75619;51.316;4.824;2024-01-15T08:41:07;7.43;;;5.68;;
85223;SDS011;75619;51.316;4.824;2024-01-15T08:43:33;13.48;;;8.57;;
85223;SDS011;75619;51.316;4.824;2024-01-15T08:45:59;21.70;;;14.95;;
85223;SDS011;75619;51.316;4.824;2024-01-15T08:48:25;12.88;;;5.88;;
85223;SDS011;75619;51.316;4.824;2024-01-15T08:50:54;6.95;;;3.92;;
85223;SDS011;75619;51.316;4.824;2024-01-15T08:53:20;6.80;;;3.38;;
85223;SDS011;75619;51.316;4.824;2024-01-15T08:55:45;6.45;;;3.08;;
85223;SDS011;75619;51.316;4.824;2024-01-15T08:58:11;7.72;;;4.00;;
85223;SDS011;75619;51.316;4.824;2024-01-15T09:00:37;11.57;;;3.65;;
85223;SDS011;75619;51.316;4.824;2024-01-15T09:03:02;7.43;;;3.63;;
85223;SDS011;75619;51.316;4.824;2024-01-15T09:05:28;5.38;;;2.58;;
85223;SDS011;75619;51.316;4.824;2024-01-15T09:07:54;9.77;;;2.63;;
85223;SDS011;75619;51.316;4.824;2024-01-15T09:10:20;6.43;;;3.00;;
85223;SDS011;75619;51.316;4.824;2024-01-15T09:12:45;7.72;;;3.50;;
85223;SDS011;75619;51.316;4.824;2024-01-15T09:15:12;16.02;;;8.50;;
85223;SDS011;75619;51.316;4.824;2024-01-15T09:17:37;15.85;;;8.52;;
85223;SDS011;75619;51.316;4.824;2024-01-15T09:20:03;37.55;;;19.38;;
85223;SDS011;75619;51.316;4.824;2024-01-15T09:22:31;11.07;;;5.38;;
85223;SDS011;75619;51.316;4.824;2024-01-15T09:24:57;10.77;;;4.43;;
85223;SDS011;75619;51.316;4.824;2024-01-15T09:27:24;9.57;;;4.63;;
85223;SDS011;75619;51.316;4.824;2024-01-15T09:29:51;15.57;;;5.25;;
85223;SDS011;75619;51.316;4.824;2024-01-15T09:32:17;15.70;;;5.45;;
85223;SDS011;75619;51.316;4.824;2024-01-15T09:34:43;9.77;;;3.70;;
85223;SDS011;75619;51.316;4.824;2024-01-15T09:37:11;9.85;;;2.72;;
85223;SDS011;75619;51.316;4.824;2024-01-15T09:39:37;10.80;;;2.85;;
85223;SDS011;75619;51.316;4.824;2024-01-15T09:42:02;7.43;;;2.58;;
85223;SDS011;75619;51.316;4.824;2024-01-15T09:44:29;13.32;;;2.42;;
85223;SDS011;75619;51.316;4.824;2024-01-15T09:46:55;5.95;;;1.67;;
85223;SDS011;75619;51.316;4.824;2024-01-15T09:49:22;7.20;;;2.00;;
85223;SDS011;75619;51.316;4.824;2024-01-15T09:51:48;10.52;;;2.15;;
85223;SDS011;75619;51.316;4.824;2024-01-15T09:54:14;10.25;;;4.72;;
85223;SDS011;75619;51.316;4.824;2024-01-15T09:56:46;15.75;;;6.10;;
85223;SDS011;75619;51.316;4.824;2024-01-15T09:59:18;17.58;;;4.75;;
85223;SDS011;75619;51.316;4.824;2024-01-15T10:01:45;5.80;;;2.17;;
85223;SDS011;75619;51.316;4.824;2024-01-15T10:04:13;18.23;;;7.88;;
85223;SDS011;75619;51.316;4.824;2024-01-15T10:06:39;8.50;;;3.40;;
85223;SDS011;75619;51.316;4.824;2024-01-15T10:09:10;11.73;;;2.50;;
85223;SDS011;75619;51.316;4.824;2024-01-15T10:11:40;12.32;;;3.00;;
85223;SDS011;75619;51.316;4.824;2024-01-15T10:14:06;9.57;;;2.30;;
85223;SDS011;75619;51.316;4.824;2024-01-15T10:16:33;3.75;;;1.38;;
85223;SDS011;75619;51.316;4.824;2024-01-15T10:18:58;10.88;;;2.05;;
85223;SDS011;75619;51.316;4.824;2024-01-15T10:21:24;11.10;;;1.52;;
85223;SDS011;75619;51.316;4.824;2024-01-15T10:23:51;4.63;;;2.03;;
85223;SDS011;75619;51.316;4.824;2024-01-15T10:26:17;5.50;;;1.45;;
85223;SDS011;75619;51.316;4.824;2024-01-15T10:28:43;14.23;;;4.18;;
85223;SDS011;75619;51.316;4.824;2024-01-15T10:31:08;3.42;;;1.77;;
85223;SDS011;75619;51.316;4.824;2024-01-15T10:33:35;18.17;;;8.93;;
85223;SDS011;75619;51.316;4.824;2024-01-15T10:36:00;8.10;;;3.67;;
85223;SDS011;75619;51.316;4.824;2024-01-15T10:38:26;6.28;;;3.03;;
85223;SDS011;75619;51.316;4.824;2024-01-15T10:40:53;10.30;;;7.47;;
85223;SDS011;75619;51.316;4.824;2024-01-15T10:43:19;7.65;;;2.03;;
85223;SDS011;75619;51.316;4.824;2024-01-15T10:45:45;5.18;;;1.15;;
85223;SDS011;75619;51.316;4.824;2024-01-15T10:48:12;5.15;;;1.05;;
85223;SDS011;75619;51.316;4.824;2024-01-15T10:50:38;2.00;;;1.00;;
85223;SDS011;75619;51.316;4.824;2024-01-15T10:53:04;7.60;;;3.17;;
85223;SDS011;75619;51.316;4.824;2024-01-15T10:55:31;6.05;;;1.90;;
85223;SDS011;75619;51.316;4.824;2024-01-15T10:57:58;9.77;;;4.22;;
85223;SDS011;75619;51.316;4.824;2024-01-15T11:00:25;9.90;;;2.13;;
85223;SDS011;75619;51.316;4.824;2024-01-15T11:02:52;5.97;;;2.92;;
85223;SDS011;75619;51.316;4.824;2024-01-15T11:05:22;3.13;;;1.10;;
85223;SDS011;75619;51.316;4.824;2024-01-15T11:07:48;3.40;;;1.67;;
85223;SDS011;75619;51.316;4.824;2024-01-15T11:13:53;8.98;;;2.10;;
85223;SDS011;75619;51.316;4.824;2024-01-15T11:16:16;7.68;;;1.92;;
85223;SDS011;75619;51.316;4.824;2024-01-15T11:18:43;4.43;;;1.58;;
85223;SDS011;75619;51.316;4.824;2024-01-15T11:21:28;11.52;;;5.53;;
85223;SDS011;75619;51.316;4.824;2024-01-15T11:23:58;8.23;;;4.10;;
85223;SDS011;75619;51.316;4.824;2024-01-15T11:28:54;5.15;;;1.95;;
85223;SDS011;75619;51.316;4.824;2024-01-15T11:31:56;5.40;;;2.28;;
85223;SDS011;75619;51.316;4.824;2024-01-15T11:34:07;8.35;;;2.95;;
85223;SDS011;75619;51.316;4.824;2024-01-15T11:41:56;7.50;;;3.17;;
85223;SDS011;75619;51.316;4.824;2024-01-15T11:44:22;4.90;;;1.92;;
85223;SDS011;75619;51.316;4.824;2024-01-15T11:46:58;7.78;;;2.05;;
85223;SDS011;75619;51.316;4.824;2024-01-15T11:52:18;2.63;;;1.05;;
85223;SDS011;75619;51.316;4.824;2024-01-15T11:54:54;5.95;;;1.08;;
85223;SDS011;75619;51.316;4.824;2024-01-15T11:57:30;3.35;;;1.17;;
85223;SDS011;75619;51.316;4.824;2024-01-15T12:00:08;2.90;;;0.95;;
85223;SDS011;75619;51.316;4.824;2024-01-15T12:02:35;6.60;;;1.13;;
85223;SDS011;75619;51.316;4.824;2024-01-15T12:05:01;7.05;;;1.13;;
85223;SDS011;75619;51.316;4.824;2024-01-15T12:07:27;1.83;;;0.82;;
85223;SDS011;75619;51.316;4.824;2024-01-15T12:09:53;2.70;;;0.80;;
85223;SDS011;75619;51.316;4.824;2024-01-15T12:12:24;4.50;;;1.33;;
85223;SDS011;75619;51.316;4.824;2024-01-15T12:15:00;2.38;;;0.90;;
85223;SDS011;75619;51.316;4.824;2024-01-15T12:17:26;1.50;;;0.80;;
85223;SDS011;75619;51.316;4.824;2024-01-15T12:19:51;2.67;;;1.02;;
85223;SDS011;75619;51.316;4.824;2024-01-15T12:22:17;5.60;;;1.42;;
85223;SDS011;75619;51.316;4.824;2024-01-15T12:24:43;5.40;;;1.30;;
85223;SDS011;75619;51.316;4.824;2024-01-15T12:27:09;5.13;;;1.02;;
85223;SDS011;75619;51.316;4.824;2024-01-15T12:29:35;2.08;;;0.90;;
85223;SDS011;75619;51.316;4.824;2024-01-15T12:32:01;2.90;;;0.77;;
85223;SDS011;75619;51.316;4.824;2024-01-15T12:34:29;1.35;;;0.73;;
85223;SDS011;75619;51.316;4.824;2024-01-15T12:36:57;2.67;;;0.90;;
85223;SDS011;75619;51.316;4.824;2024-01-15T12:39:22;2.00;;;0.73;;
85223;SDS011;75619;51.316;4.824;2024-01-15T12:41:49;2.08;;;0.80;;
85223;SDS011;75619;51.316;4.824;2024-01-15T12:44:16;2.00;;;0.90;;
85223;SDS011;75619;51.316;4.824;2024-01-15T12:46:42;2.42;;;0.70;;
85223;SDS011;75619;51.316;4.824;2024-01-15T12:49:08;3.10;;;0.85;;
85223;SDS011;75619;51.316;4.824;2024-01-15T12:51:36;7.53;;;1.83;;
85223;SDS011;75619;51.316;4.824;2024-01-15T12:54:02;2.53;;;0.95;;
85223;SDS011;75619;51.316;4.824;2024-01-15T12:56:28;5.30;;;1.40;;
85223;SDS011;75619;51.316;4.824;2024-01-15T12:58:53;4.45;;;1.48;;
85223;SDS011;75619;51.316;4.824;2024-01-15T13:01:19;5.78;;;1.48;;
85223;SDS011;75619;51.316;4.824;2024-01-15T13:03:44;5.15;;;2.13;;
85223;SDS011;75619;51.316;4.824;2024-01-15T13:06:10;4.40;;;1.40;;
85223;SDS011;75619;51.316;4.824;2024-01-15T13:08:35;2.47;;;0.80;;
85223;SDS011;75619;51.316;4.824;2024-01-15T13:11:01;4.97;;;1.40;;
85223;SDS011;75619;51.316;4.824;2024-01-15T13:13:26;7.72;;;2.70;;
85223;SDS011;75619;51.316;4.824;2024-01-15T13:15:52;10.02;;;2.00;;
85223;SDS011;75619;51.316;4.824;2024-01-15T13:18:18;7.72;;;2.75;;
85223;SDS011;75619;51.316;4.824;2024-01-15T13:20:44;6.15;;;3.20;;
85223;SDS011;75619;51.316;4.824;2024-01-15T13:23:11;6.63;;;3.13;;
85223;SDS011;75619;51.316;4.824;2024-01-15T13:25:36;4.53;;;1.52;;
85223;SDS011;75619;51.316;4.824;2024-01-15T13:28:06;3.47;;;1.40;;
85223;SDS011;75619;51.316;4.824;2024-01-15T13:30:33;4.78;;;2.40;;
85223;SDS011;75619;51.316;4.824;2024-01-15T13:32:58;2.95;;;1.27;;
85223;SDS011;75619;51.316;4.824;2024-01-15T13:35:29;5.03;;;1.30;;
85223;SDS011;75619;51.316;4.824;2024-01-15T13:37:55;4.40;;;1.98;;
85223;SDS011;75619;51.316;4.824;2024-01-15T13:40:20;1.70;;;0.82;;
85223;SDS011;75619;51.316;4.824;2024-01-15T13:42:47;1.02;;;0.70;;
85223;SDS011;75619;51.316;4.824;2024-01-15T13:45:13;3.70;;;1.75;;
85223;SDS011;75619;51.316;4.824;2024-01-15T13:47:42;0.93;;;0.50;;
85223;SDS011;75619;51.316;4.824;2024-01-15T13:50:09;6.47;;;0.90;;
85223;SDS011;75619;51.316;4.824;2024-01-15T13:52:34;3.15;;;0.90;;
85223;SDS011;75619;51.316;4.824;2024-01-15T13:55:00;1.58;;;0.85;;
85223;SDS011;75619;51.316;4.824;2024-01-15T13:57:26;10.63;;;5.57;;
85223;SDS011;75619;51.316;4.824;2024-01-15T13:59:52;18.10;;;8.00;;
85223;SDS011;75619;51.316;4.824;2024-01-15T14:02:18;12.60;;;6.03;;
85223;SDS011;75619;51.316;4.824;2024-01-15T14:04:45;6.38;;;3.33;;
85223;SDS011;75619;51.316;4.824;2024-01-15T14:07:11;5.30;;;2.85;;
85223;SDS011;75619;51.316;4.824;2024-01-15T14:09:37;3.58;;;1.92;;
85223;SDS011;75619;51.316;4.824;2024-01-15T14:12:03;3.28;;;1.52;;
85223;SDS011;75619;51.316;4.824;2024-01-15T14:14:28;4.45;;;2.85;;
85223;SDS011;75619;51.316;4.824;2024-01-15T14:16:54;3.92;;;1.83;;
85223;SDS011;75619;51.316;4.824;2024-01-15T14:19:19;6.05;;;2.33;;
85223;SDS011;75619;51.316;4.824;2024-01-15T14:21:45;5.72;;;2.40;;
85223;SDS011;75619;51.316;4.824;2024-01-15T14:24:11;7.25;;;2.00;;
85223;SDS011;75619;51.316;4.824;2024-01-15T14:26:37;3.53;;;2.13;;
85223;SDS011;75619;51.316;4.824;2024-01-15T14:29:02;7.10;;;1.75;;
85223;SDS011;75619;51.316;4.824;2024-01-15T14:31:28;1.17;;;0.70;;
85223;SDS011;75619;51.316;4.824;2024-01-15T14:33:54;1.98;;;0.93;;
85223;SDS011;75619;51.316;4.824;2024-01-15T14:36:20;5.47;;;1.25;;
85223;SDS011;75619;51.316;4.824;2024-01-15T14:38:46;5.78;;;0.77;;
85223;SDS011;75619;51.316;4.824;2024-01-15T14:41:11;2.88;;;1.00;;
85223;SDS011;75619;51.316;4.824;2024-01-15T14:43:37;1.95;;;0.70;;
85223;SDS011;75619;51.316;4.824;2024-01-15T14:46:02;5.70;;;1.48;;
85223;SDS011;75619;51.316;4.824;2024-01-15T14:48:28;3.00;;;1.00;;
85223;SDS011;75619;51.316;4.824;2024-01-15T14:50:54;2.97;;;0.50;;
85223;SDS011;75619;51.316;4.824;2024-01-15T14:53:20;3.38;;;2.03;;